sensor_id;sensor_type;location;lat;lon;timestamp;P1;durP1;ratioP1;P2;durP2;ratioP2
5805;SDS011;2929;50.810;8.342;2022-11-06T00:00:15;10.97;;;5.80;;
5805;SDS011;2929;50.810;8.342;2022-11-06T00:02:44;9.50;;;5.97;;
5805;SDS011;2929;50.810;8.342;2022-11-06T00:05:12;14.07;;;6.70;;
5805;SDS011;2929;50.810;8.342;2022-11-06T00:07:58;15.03;;;6.77;;
5805;SDS011;2929;50.810;8.342;2022-11-06T00:10:25;9.83;;;6.00;;
5805;SDS011;2929;50.810;8.342;2022-11-06T00:12:55;14.50;;;5.70;;
5805;SDS011;2929;50.810;8.342;2022-11-06T00:15:22;10.80;;;6.70;;
5805;SDS011;2929;50.810;8.342;2022-11-06T00:17:49;21.33;;;7.23;;
5805;SDS011;2929;50.810;8.342;2022-11-06T00:20:16;13.00;;;7.33;;
5805;SDS011;2929;50.810;8.342;2022-11-06T00:22:43;13.70;;;8.30;;
5805;SDS011;2929;50.810;8.342;2022-11-06T00:25:12;13.90;;;6.10;;
5805;SDS011;2929;50.810;8.342;2022-11-06T00:27:39;13.10;;;7.43;;
5805;SDS011;2929;50.810;8.342;2022-11-06T00:30:08;16.10;;;7.17;;
5805;SDS011;2929;50.810;8.342;2022-11-06T00:32:37;21.50;;;7.20;;
5805;SDS011;2929;50.810;8.342;2022-11-06T00:35:05;30.90;;;8.80;;
5805;SDS011;2929;50.810;8.342;2022-11-06T00:37:32;13.07;;;6.87;;
5805;SDS011;2929;50.810;8.342;2022-11-06T00:40:00;13.37;;;6.67;;
5805;SDS011;2929;50.810;8.342;2022-11-06T00:42:29;12.10;;;7.50;;
5805;SDS011;2929;50.810;8.342;2022-11-06T00:44:57;15.17;;;6.97;;
5805;SDS011;2929;50.810;8.342;2022-11-06T00:47:24;12.63;;;7.90;;
5805;SDS011;2929;50.810;8.342;2022-11-06T00:49:51;14.13;;;6.57;;
5805;SDS011;2929;50.810;8.342;2022-11-06T00:52:18;18.30;;;7.77;;
5805;SDS011;2929;50.810;8.342;2022-11-06T00:54:45;10.70;;;6.80;;
5805;SDS011;2929;50.810;8.342;2022-11-06T00:57:12;12.40;;;6.70;;
5805;SDS011;2929;50.810;8.342;2022-11-06T00:59:40;17.83;;;7.73;;
5805;SDS011;2929;50.810;8.342;2022-11-06T01:02:07;12.30;;;7.90;;
5805;SDS011;2929;50.810;8.342;2022-11-06T01:04:35;16.63;;;8.17;;
5805;SDS011;2929;50.810;8.342;2022-11-06T01:07:02;12.07;;;7.03;;
5805;SDS011;2929;50.810;8.342;2022-11-06T01:09:29;22.77;;;8.23;;
5805;SDS011;2929;50.810;8.342;2022-11-06T01:11:56;13.00;;;7.33;;
5805;SDS011;2929;50.810;8.342;2022-11-06T01:14:25;16.83;;;8.27;;
5805;SDS011;2929;50.810;8.342;2022-11-06T01:16:55;14.80;;;7.50;;
5805;SDS011;2929;50.810;8.342;2022-11-06T01:19:22;19.30;;;7.20;;
5805;SDS011;2929;50.810;8.342;2022-11-06T01:21:50;21.63;;;8.87;;
5805;SDS011;2929;50.810;8.342;2022-11-06T01:24:19;15.47;;;8.90;;
5805;SDS011;2929;50.810;8.342;2022-11-06T01:26:49;13.37;;;7.33;;
5805;SDS011;2929;50.810;8.342;2022-11-06T01:29:18;17.67;;;7.90;;
5805;SDS011;2929;50.810;8.342;2022-11-06T01:31:46;14.13;;;8.30;;
5805;SDS011;2929;50.810;8.342;2022-11-06T01:34:17;12.00;;;7.70;;
5805;SDS011;2929;50.810;8.342;2022-11-06T01:36:44;16.50;;;7.73;;
5805;SDS011;2929;50.810;8.342;2022-11-06T01:39:12;15.27;;;7.50;;
5805;SDS011;2929;50.810;8.342;2022-11-06T01:41:42;15.67;;;8.23;;
5805;SDS011;2929;50.810;8.342;2022-11-06T01:47:29;15.33;;;7.80;;
5805;SDS011;2929;50.810;8.342;2022-11-06T01:49:58;18.33;;;8.70;;
5805;SDS011;2929;50.810;8.342;2022-11-06T01:52:28;16.53;;;7.87;;
5805;SDS011;2929;50.810;8.342;2022-11-06T01:55:02;18.77;;;7.83;;
5805;SDS011;2929;50.810;8.342;2022-11-06T01:57:34;16.60;;;8.17;;
5805;SDS011;2929;50.810;8.342;2022-11-06T02:00:02;13.47;;;6.90;;
5805;SDS011;2929;50.810;8.342;2022-11-06T02:02:30;19.10;;;7.13;;
5805;SDS011;2929;50.810;8.342;2022-11-06T02:04:59;14.53;;;7.27;;
5805;SDS011;2929;50.810;8.342;2022-11-06T02:07:26;13.60;;;7.17;;
5805;SDS011;2929;50.810;8.342;2022-11-06T02:09:53;14.30;;;6.23;;
5805;SDS011;2929;50.810;8.342;2022-11-06T02:12:23;14.10;;;7.27;;
5805;SDS011;2929;50.810;8.342;2022-11-06T02:14:59;16.40;;;7.30;;
5805;SDS011;2929;50.810;8.342;2022-11-06T02:17:33;11.63;;;7.60;;
5805;SDS011;2929;50.810;8.342;2022-11-06T02:20:10;12.83;;;7.30;;
5805;SDS011;2929;50.810;8.342;2022-11-06T02:22:52;25.50;;;8.30;;
5805;SDS011;2929;50.810;8.342;2022-11-06T02:25:32;14.43;;;7.10;;
5805;SDS011;2929;50.810;8.342;2022-11-06T02:28:12;17.53;;;8.40;;
5805;SDS011;2929;50.810;8.342;2022-11-06T02:30:43;13.60;;;7.83;;
5805;SDS011;2929;50.810;8.342;2022-11-06T02:33:13;18.10;;;8.30;;
5805;SDS011;2929;50.810;8.342;2022-11-06T02:35:44;13.63;;;7.97;;
5805;SDS011;2929;50.810;8.342;2022-11-06T02:38:17;14.17;;;8.70;;
5805;SDS011;2929;50.810;8.342;2022-11-06T02:40:47;16.00;;;7.23;;
5805;SDS011;2929;50.810;8.342;2022-11-06T02:43:20;12.77;;;7.33;;
5805;SDS011;2929;50.810;8.342;2022-11-06T02:45:52;12.90;;;8.10;;
5805;SDS011;2929;50.810;8.342;2022-11-06T02:48:23;18.23;;;8.07;;
5805;SDS011;2929;50.810;8.342;2022-11-06T02:50:54;13.00;;;7.67;;
5805;SDS011;2929;50.810;8.342;2022-11-06T02:53:25;19.20;;;9.07;;
5805;SDS011;2929;50.810;8.342;2022-11-06T02:55:54;16.90;;;8.07;;
5805;SDS011;2929;50.810;8.342;2022-11-06T02:58:27;20.30;;;8.27;;
5805;SDS011;2929;50.810;8.342;2022-11-06T03:00:59;17.40;;;7.70;;
5805;SDS011;2929;50.810;8.342;2022-11-06T03:03:29;15.47;;;7.50;;
5805;SDS011;2929;50.810;8.342;2022-11-06T03:06:01;17.13;;;6.60;;
5805;SDS011;2929;50.810;8.342;2022-11-06T03:08:33;18.77;;;7.70;;
5805;SDS011;2929;50.810;8.342;2022-11-06T03:11:05;14.57;;;6.30;;
5805;SDS011;2929;50.810;8.342;2022-11-06T03:13:43;17.80;;;6.50;;
5805;SDS011;2929;50.810;8.342;2022-11-06T03:16:20;16.70;;;6.93;;
5805;SDS011;2929;50.810;8.342;2022-11-06T03:18:56;13.77;;;6.40;;
5805;SDS011;2929;50.810;8.342;2022-11-06T03:21:29;16.90;;;7.07;;
5805;SDS011;2929;50.810;8.342;2022-11-06T03:24:03;16.90;;;6.67;;
5805;SDS011;2929;50.810;8.342;2022-11-06T03:26:36;14.63;;;6.73;;
5805;SDS011;2929;50.810;8.342;2022-11-06T03:29:11;16.83;;;6.93;;
5805;SDS011;2929;50.810;8.342;2022-11-06T03:31:43;13.60;;;5.80;;
5805;SDS011;2929;50.810;8.342;2022-11-06T03:34:16;16.73;;;6.40;;
5805;SDS011;2929;50.810;8.342;2022-11-06T03:36:48;10.57;;;5.80;;
5805;SDS011;2929;50.810;8.342;2022-11-06T03:39:20;12.47;;;7.03;;
5805;SDS011;2929;50.810;8.342;2022-11-06T03:41:55;14.03;;;6.10;;
5805;SDS011;2929;50.810;8.342;2022-11-06T03:44:29;11.20;;;6.17;;
5805;SDS011;2929;50.810;8.342;2022-11-06T03:46:59;14.10;;;6.57;;
5805;SDS011;2929;50.810;8.342;2022-11-06T03:49:38;12.40;;;6.70;;
5805;SDS011;2929;50.810;8.342;2022-11-06T03:52:10;12.40;;;6.77;;
5805;SDS011;2929;50.810;8.342;2022-11-06T03:54:43;12.33;;;5.60;;
5805;SDS011;2929;50.810;8.342;2022-11-06T03:57:14;13.80;;;6.70;;
5805;SDS011;2929;50.810;8.342;2022-11-06T03:59:48;18.73;;;7.27;;
5805;SDS011;2929;50.810;8.342;2022-11-06T04:02:18;12.10;;;5.97;;
5805;SDS011;2929;50.810;8.342;2022-11-06T04:04:47;10.30;;;6.00;;
5805;SDS011;2929;50.810;8.342;2022-11-06T04:07:18;11.20;;;5.93;;
5805;SDS011;2929;50.810;8.342;2022-11-06T04:09:48;12.03;;;6.80;;
5805;SDS011;2929;50.810;8.342;2022-11-06T04:12:36;13.43;;;6.70;;
5805;SDS011;2929;50.810;8.342;2022-11-06T04:15:26;9.80;;;5.67;;
5805;SDS011;2929;50.810;8.342;2022-11-06T04:17:58;9.10;;;5.83;;
5805;SDS011;2929;50.810;8.342;2022-11-06T04:20:26;31.93;;;6.73;;
5805;SDS011;2929;50.810;8.342;2022-11-06T04:23:19;17.80;;;5.60;;
5805;SDS011;2929;50.810;8.342;2022-11-06T04:25:55;10.10;;;5.77;;
5805;SDS011;2929;50.810;8.342;2022-11-06T04:28:47;11.60;;;6.27;;
5805;SDS011;2929;50.810;8.342;2022-11-06T04:31:23;15.77;;;7.10;;
5805;SDS011;2929;50.810;8.342;2022-11-06T04:33:57;11.80;;;5.83;;
5805;SDS011;2929;50.810;8.342;2022-11-06T04:36:31;17.80;;;7.40;;
5805;SDS011;2929;50.810;8.342;2022-11-06T04:39:08;10.73;;;5.80;;
5805;SDS011;2929;50.810;8.342;2022-11-06T04:41:43;11.90;;;5.80;;
5805;SDS011;2929;50.810;8.342;2022-11-06T04:44:18;11.47;;;5.83;;
5805;SDS011;2929;50.810;8.342;2022-11-06T04:47:00;12.73;;;6.33;;
5805;SDS011;2929;50.810;8.342;2022-11-06T04:49:31;13.40;;;6.60;;
5805;SDS011;2929;50.810;8.342;2022-11-06T04:52:01;14.33;;;5.60;;
5805;SDS011;2929;50.810;8.342;2022-11-06T04:54:31;12.20;;;5.63;;
5805;SDS011;2929;50.810;8.342;2022-11-06T04:56:59;18.73;;;6.13;;
5805;SDS011;2929;50.810;8.342;2022-11-06T04:59:27;17.30;;;5.60;;
5805;SDS011;2929;50.810;8.342;2022-11-06T05:01:55;11.23;;;6.07;;
5805;SDS011;2929;50.810;8.342;2022-11-06T05:04:24;11.67;;;5.80;;
5805;SDS011;2929;50.810;8.342;2022-11-06T05:06:51;9.97;;;5.57;;
5805;SDS011;2929;50.810;8.342;2022-11-06T05:09:18;16.07;;;6.53;;
5805;SDS011;2929;50.810;8.342;2022-11-06T05:11:45;10.30;;;5.10;;
5805;SDS011;2929;50.810;8.342;2022-11-06T05:14:12;17.43;;;6.10;;
5805;SDS011;2929;50.810;8.342;2022-11-06T05:16:39;12.33;;;4.70;;
5805;SDS011;2929;50.810;8.342;2022-11-06T05:19:06;12.07;;;5.47;;
5805;SDS011;2929;50.810;8.342;2022-11-06T05:21:34;7.70;;;5.23;;
5805;SDS011;2929;50.810;8.342;2022-11-06T05:24:18;11.60;;;5.40;;
5805;SDS011;2929;50.810;8.342;2022-11-06T05:26:45;10.30;;;5.00;;
5805;SDS011;2929;50.810;8.342;2022-11-06T05:29:13;8.80;;;5.80;;
5805;SDS011;2929;50.810;8.342;2022-11-06T05:31:40;18.63;;;5.27;;
5805;SDS011;2929;50.810;8.342;2022-11-06T05:34:07;11.50;;;5.37;;
5805;SDS011;2929;50.810;8.342;2022-11-06T05:36:35;7.70;;;5.30;;
5805;SDS011;2929;50.810;8.342;2022-11-06T05:39:02;12.13;;;5.37;;
5805;SDS011;2929;50.810;8.342;2022-11-06T05:41:29;10.03;;;4.57;;
5805;SDS011;2929;50.810;8.342;2022-11-06T05:43:56;13.50;;;5.53;;
5805;SDS011;2929;50.810;8.342;2022-11-06T05:46:23;13.77;;;5.90;;
5805;SDS011;2929;50.810;8.342;2022-11-06T05:48:50;9.73;;;4.90;;
5805;SDS011;2929;50.810;8.342;2022-11-06T05:51:18;17.50;;;5.80;;
5805;SDS011;2929;50.810;8.342;2022-11-06T05:53:47;22.67;;;6.87;;
5805;SDS011;2929;50.810;8.342;2022-11-06T05:56:14;12.93;;;5.23;;
5805;SDS011;2929;50.810;8.342;2022-11-06T05:58:41;10.67;;;4.70;;
5805;SDS011;2929;50.810;8.342;2022-11-06T06:01:08;9.93;;;5.33;;
5805;SDS011;2929;50.810;8.342;2022-11-06T06:03:36;10.87;;;4.67;;
5805;SDS011;2929;50.810;8.342;2022-11-06T06:06:03;10.50;;;5.73;;
5805;SDS011;2929;50.810;8.342;2022-11-06T06:08:30;13.97;;;5.73;;
5805;SDS011;2929;50.810;8.342;2022-11-06T06:10:59;14.37;;;5.07;;
5805;SDS011;2929;50.810;8.342;2022-11-06T06:13:26;10.73;;;4.93;;
5805;SDS011;2929;50.810;8.342;2022-11-06T06:15:53;9.80;;;5.20;;
5805;SDS011;2929;50.810;8.342;2022-11-06T06:18:20;9.13;;;4.30;;
5805;SDS011;2929;50.810;8.342;2022-11-06T06:20:47;8.13;;;5.10;;
5805;SDS011;2929;50.810;8.342;2022-11-06T06:23:14;17.43;;;5.57;;
5805;SDS011;2929;50.810;8.342;2022-11-06T06:25:41;16.83;;;5.17;;
5805;SDS011;2929;50.810;8.342;2022-11-06T06:28:09;11.30;;;6.03;;
5805;SDS011;2929;50.810;8.342;2022-11-06T06:30:36;18.03;;;6.03;;
5805;SDS011;2929;50.810;8.342;2022-11-06T06:33:04;13.30;;;5.37;;
5805;SDS011;2929;50.810;8.342;2022-11-06T06:35:31;12.73;;;6.03;;
5805;SDS011;2929;50.810;8.342;2022-11-06T06:37:59;12.80;;;5.67;;
5805;SDS011;2929;50.810;8.342;2022-11-06T06:40:26;10.40;;;6.13;;
5805;SDS011;2929;50.810;8.342;2022-11-06T06:42:54;14.70;;;5.30;;
5805;SDS011;2929;50.810;8.342;2022-11-06T06:45:23;11.43;;;6.30;;
5805;SDS011;2929;50.810;8.342;2022-11-06T06:47:51;8.40;;;5.20;;
5805;SDS011;2929;50.810;8.342;2022-11-06T06:50:18;15.60;;;5.80;;
5805;SDS011;2929;50.810;8.342;2022-11-06T06:52:45;9.23;;;5.50;;
5805;SDS011;2929;50.810;8.342;2022-11-06T06:55:12;8.57;;;5.60;;
5805;SDS011;2929;50.810;8.342;2022-11-06T06:57:39;11.07;;;6.03;;
5805;SDS011;2929;50.810;8.342;2022-11-06T07:00:07;8.63;;;5.60;;
5805;SDS011;2929;50.810;8.342;2022-11-06T07:02:36;12.40;;;6.00;;
5805;SDS011;2929;50.810;8.342;2022-11-06T07:05:03;9.10;;;6.13;;
5805;SDS011;2929;50.810;8.342;2022-11-06T07:07:30;14.90;;;6.67;;
5805;SDS011;2929;50.810;8.342;2022-11-06T07:09:58;14.80;;;5.87;;
5805;SDS011;2929;50.810;8.342;2022-11-06T07:12:25;12.43;;;5.30;;
5805;SDS011;2929;50.810;8.342;2022-11-06T07:14:52;12.23;;;6.07;;
5805;SDS011;2929;50.810;8.342;2022-11-06T07:17:19;9.80;;;5.13;;
5805;SDS011;2929;50.810;8.342;2022-11-06T07:19:48;23.50;;;7.17;;
5805;SDS011;2929;50.810;8.342;2022-11-06T07:22:15;19.63;;;6.10;;
5805;SDS011;2929;50.810;8.342;2022-11-06T07:24:42;15.07;;;6.50;;
5805;SDS011;2929;50.810;8.342;2022-11-06T07:27:09;12.77;;;6.43;;
5805;SDS011;2929;50.810;8.342;2022-11-06T07:29:36;13.00;;;5.80;;
5805;SDS011;2929;50.810;8.342;2022-11-06T07:32:06;11.23;;;6.87;;
5805;SDS011;2929;50.810;8.342;2022-11-06T07:34:34;12.03;;;6.10;;
5805;SDS011;2929;50.810;8.342;2022-11-06T07:37:04;15.03;;;6.83;;
5805;SDS011;2929;50.810;8.342;2022-11-06T07:39:34;17.40;;;6.43;;
5805;SDS011;2929;50.810;8.342;2022-11-06T07:42:01;13.53;;;6.80;;
5805;SDS011;2929;50.810;8.342;2022-11-06T07:44:33;25.43;;;6.73;;
5805;SDS011;2929;50.810;8.342;2022-11-06T07:47:01;12.30;;;6.53;;
5805;SDS011;2929;50.810;8.342;2022-11-06T07:49:28;16.83;;;7.40;;
5805;SDS011;2929;50.810;8.342;2022-11-06T07:51:55;14.87;;;6.27;;
5805;SDS011;2929;50.810;8.342;2022-11-06T07:54:23;13.90;;;6.00;;
5805;SDS011;2929;50.810;8.342;2022-11-06T07:56:50;14.77;;;7.03;;
5805;SDS011;2929;50.810;8.342;2022-11-06T07:59:18;8.20;;;6.20;;
5805;SDS011;2929;50.810;8.342;2022-11-06T08:01:45;16.07;;;6.70;;
5805;SDS011;2929;50.810;8.342;2022-11-06T08:04:12;15.87;;;6.50;;
5805;SDS011;2929;50.810;8.342;2022-11-06T08:06:39;17.07;;;5.87;;
5805;SDS011;2929;50.810;8.342;2022-11-06T08:09:06;21.13;;;6.53;;
5805;SDS011;2929;50.810;8.342;2022-11-06T08:11:35;18.27;;;6.30;;
5805;SDS011;2929;50.810;8.342;2022-11-06T08:14:02;11.07;;;6.30;;
5805;SDS011;2929;50.810;8.342;2022-11-06T08:16:29;12.83;;;5.10;;
5805;SDS011;2929;50.810;8.342;2022-11-06T08:18:58;17.00;;;6.07;;
5805;SDS011;2929;50.810;8.342;2022-11-06T08:21:25;12.73;;;5.90;;
5805;SDS011;2929;50.810;8.342;2022-11-06T08:23:52;13.67;;;5.53;;
5805;SDS011;2929;50.810;8.342;2022-11-06T08:26:19;11.43;;;5.60;;
5805;SDS011;2929;50.810;8.342;2022-11-06T08:28:48;12.53;;;5.77;;
5805;SDS011;2929;50.810;8.342;2022-11-06T08:31:15;13.70;;;5.87;;
5805;SDS011;2929;50.810;8.342;2022-11-06T08:33:42;11.37;;;4.20;;
5805;SDS011;2929;50.810;8.342;2022-11-06T08:36:09;13.47;;;5.20;;
5805;SDS011;2929;50.810;8.342;2022-11-06T08:38:36;10.50;;;5.10;;
5805;SDS011;2929;50.810;8.342;2022-11-06T08:41:04;16.23;;;4.97;;
5805;SDS011;2929;50.810;8.342;2022-11-06T08:43:32;10.47;;;4.47;;
5805;SDS011;2929;50.810;8.342;2022-11-06T08:46:00;11.43;;;5.40;;
5805;SDS011;2929;50.810;8.342;2022-11-06T08:48:28;15.23;;;6.30;;
5805;SDS011;2929;50.810;8.342;2022-11-06T08:50:55;14.97;;;5.30;;
5805;SDS011;2929;50.810;8.342;2022-11-06T08:53:22;7.23;;;4.80;;
5805;SDS011;2929;50.810;8.342;2022-11-06T08:55:49;9.87;;;4.37;;
5805;SDS011;2929;50.810;8.342;2022-11-06T08:58:16;10.43;;;4.47;;
5805;SDS011;2929;50.810;8.342;2022-11-06T09:00:43;17.60;;;4.67;;
5805;SDS011;2929;50.810;8.342;2022-11-06T09:03:12;6.50;;;4.97;;
5805;SDS011;2929;50.810;8.342;2022-11-06T09:05:42;8.43;;;4.57;;
5805;SDS011;2929;50.810;8.342;2022-11-06T09:08:09;15.97;;;3.97;;
5805;SDS011;2929;50.810;8.342;2022-11-06T09:10:38;13.53;;;4.90;;
5805;SDS011;2929;50.810;8.342;2022-11-06T09:13:06;9.17;;;4.40;;
5805;SDS011;2929;50.810;8.342;2022-11-06T09:15:33;8.77;;;4.33;;
5805;SDS011;2929;50.810;8.342;2022-11-06T09:18:01;14.33;;;4.17;;
5805;SDS011;2929;50.810;8.342;2022-11-06T09:20:29;7.97;;;3.80;;
5805;SDS011;2929;50.810;8.342;2022-11-06T09:22:59;9.63;;;4.00;;
5805;SDS011;2929;50.810;8.342;2022-11-06T09:25:27;11.50;;;4.60;;
5805;SDS011;2929;50.810;8.342;2022-11-06T09:27:54;7.37;;;3.57;;
5805;SDS011;2929;50.810;8.342;2022-11-06T09:30:22;16.33;;;4.20;;
5805;SDS011;2929;50.810;8.342;2022-11-06T09:32:51;8.87;;;3.43;;
5805;SDS011;2929;50.810;8.342;2022-11-06T09:35:20;7.30;;;4.13;;
5805;SDS011;2929;50.810;8.342;2022-11-06T09:37:49;9.33;;;4.40;;
5805;SDS011;2929;50.810;8.342;2022-11-06T09:40:18;7.67;;;3.67;;
5805;SDS011;2929;50.810;8.342;2022-11-06T09:42:49;7.00;;;3.03;;
5805;SDS011;2929;50.810;8.342;2022-11-06T09:45:26;7.93;;;3.40;;
5805;SDS011;2929;50.810;8.342;2022-11-06T09:47:57;14.83;;;3.03;;
5805;SDS011;2929;50.810;8.342;2022-11-06T09:50:29;13.50;;;3.00;;
5805;SDS011;2929;50.810;8.342;2022-11-06T09:53:03;9.47;;;2.77;;
5805;SDS011;2929;50.810;8.342;2022-11-06T09:55:37;5.17;;;2.70;;
5805;SDS011;2929;50.810;8.342;2022-11-06T09:58:08;6.60;;;3.30;;
5805;SDS011;2929;50.810;8.342;2022-11-06T10:00:40;6.80;;;3.10;;
5805;SDS011;2929;50.810;8.342;2022-11-06T10:03:11;9.63;;;3.20;;
5805;SDS011;2929;50.810;8.342;2022-11-06T10:05:43;6.80;;;3.00;;
5805;SDS011;2929;50.810;8.342;2022-11-06T10:08:15;4.93;;;2.73;;
5805;SDS011;2929;50.810;8.342;2022-11-06T10:10:45;7.53;;;2.97;;
5805;SDS011;2929;50.810;8.342;2022-11-06T10:13:25;6.80;;;3.07;;
5805;SDS011;2929;50.810;8.342;2022-11-06T10:16:10;8.53;;;2.90;;
5805;SDS011;2929;50.810;8.342;2022-11-06T10:18:44;6.67;;;2.70;;
5805;SDS011;2929;50.810;8.342;2022-11-06T10:21:22;7.93;;;2.73;;
5805;SDS011;2929;50.810;8.342;2022-11-06T10:23:53;12.33;;;3.03;;
5805;SDS011;2929;50.810;8.342;2022-11-06T10:26:27;8.37;;;2.77;;
5805;SDS011;2929;50.810;8.342;2022-11-06T10:29:13;6.37;;;2.90;;
5805;SDS011;2929;50.810;8.342;2022-11-06T10:31:55;4.73;;;2.30;;
5805;SDS011;2929;50.810;8.342;2022-11-06T10:34:35;6.07;;;3.10;;
5805;SDS011;2929;50.810;8.342;2022-11-06T10:37:07;5.30;;;2.70;;
5805;SDS011;2929;50.810;8.342;2022-11-06T10:39:40;7.40;;;3.10;;
5805;SDS011;2929;50.810;8.342;2022-11-06T10:42:09;7.50;;;2.60;;
5805;SDS011;2929;50.810;8.342;2022-11-06T10:44:41;5.63;;;2.40;;
5805;SDS011;2929;50.810;8.342;2022-11-06T10:47:14;12.70;;;3.00;;
5805;SDS011;2929;50.810;8.342;2022-11-06T10:49:45;3.70;;;2.33;;
5805;SDS011;2929;50.810;8.342;2022-11-06T10:52:19;3.20;;;2.30;;
5805;SDS011;2929;50.810;8.342;2022-11-06T10:55:08;10.70;;;2.50;;
5805;SDS011;2929;50.810;8.342;2022-11-06T10:58:01;10.33;;;3.17;;
5805;SDS011;2929;50.810;8.342;2022-11-06T11:00:29;7.90;;;2.10;;
5805;SDS011;2929;50.810;8.342;2022-11-06T11:02:58;6.00;;;2.40;;
5805;SDS011;2929;50.810;8.342;2022-11-06T11:05:31;9.50;;;2.47;;
5805;SDS011;2929;50.810;8.342;2022-11-06T11:08:02;8.10;;;2.63;;
5805;SDS011;2929;50.810;8.342;2022-11-06T11:10:32;8.83;;;2.80;;
5805;SDS011;2929;50.810;8.342;2022-11-06T11:13:01;12.13;;;2.60;;
5805;SDS011;2929;50.810;8.342;2022-11-06T11:15:30;8.27;;;2.10;;
5805;SDS011;2929;50.810;8.342;2022-11-06T11:18:07;3.17;;;1.70;;
5805;SDS011;2929;50.810;8.342;2022-11-06T11:20:41;7.00;;;2.50;;
5805;SDS011;2929;50.810;8.342;2022-11-06T11:23:14;7.60;;;2.07;;
5805;SDS011;2929;50.810;8.342;2022-11-06T11:25:44;2.80;;;2.20;;
5805;SDS011;2929;50.810;8.342;2022-11-06T11:28:19;4.20;;;2.27;;
5805;SDS011;2929;50.810;8.342;2022-11-06T11:30:51;8.63;;;2.40;;
5805;SDS011;2929;50.810;8.342;2022-11-06T11:33:19;4.73;;;2.27;;
5805;SDS011;2929;50.810;8.342;2022-11-06T11:35:49;3.40;;;1.90;;
5805;SDS011;2929;50.810;8.342;2022-11-06T11:38:16;4.50;;;2.30;;
5805;SDS011;2929;50.810;8.342;2022-11-06T11:40:47;3.80;;;1.93;;
5805;SDS011;2929;50.810;8.342;2022-11-06T11:43:23;2.50;;;2.03;;
5805;SDS011;2929;50.810;8.342;2022-11-06T11:46:01;8.37;;;2.43;;
5805;SDS011;2929;50.810;8.342;2022-11-06T11:48:40;4.50;;;2.20;;
5805;SDS011;2929;50.810;8.342;2022-11-06T11:53:56;12.40;;;3.47;;
5805;SDS011;2929;50.810;8.342;2022-11-06T11:56:28;4.97;;;2.33;;
5805;SDS011;2929;50.810;8.342;2022-11-06T11:58:56;4.83;;;2.10;;
5805;SDS011;2929;50.810;8.342;2022-11-06T12:01:33;5.40;;;2.50;;
5805;SDS011;2929;50.810;8.342;2022-11-06T12:04:15;5.10;;;2.33;;
5805;SDS011;2929;50.810;8.342;2022-11-06T12:06:55;4.17;;;2.43;;
5805;SDS011;2929;50.810;8.342;2022-11-06T12:09:26;4.80;;;2.63;;
5805;SDS011;2929;50.810;8.342;2022-11-06T12:11:56;8.23;;;1.70;;
5805;SDS011;2929;50.810;8.342;2022-11-06T12:14:30;3.20;;;2.10;;
5805;SDS011;2929;50.810;8.342;2022-11-06T12:17:03;6.90;;;2.63;;
5805;SDS011;2929;50.810;8.342;2022-11-06T12:19:37;4.93;;;2.50;;
5805;SDS011;2929;50.810;8.342;2022-11-06T12:22:09;5.87;;;2.17;;
5805;SDS011;2929;50.810;8.342;2022-11-06T12:24:43;2.83;;;2.10;;
5805;SDS011;2929;50.810;8.342;2022-11-06T12:27:17;10.90;;;2.37;;
5805;SDS011;2929;50.810;8.342;2022-11-06T12:29:47;5.10;;;2.97;;
5805;SDS011;2929;50.810;8.342;2022-11-06T12:32:21;6.17;;;2.30;;
5805;SDS011;2929;50.810;8.342;2022-11-06T12:35:00;7.53;;;3.00;;
5805;SDS011;2929;50.810;8.342;2022-11-06T12:37:37;3.47;;;2.60;;
5805;SDS011;2929;50.810;8.342;2022-11-06T12:40:15;6.63;;;3.83;;
5805;SDS011;2929;50.810;8.342;2022-11-06T12:42:50;4.60;;;2.90;;
5805;SDS011;2929;50.810;8.342;2022-11-06T12:45:25;7.70;;;3.10;;
5805;SDS011;2929;50.810;8.342;2022-11-06T12:48:03;6.07;;;3.13;;
5805;SDS011;2929;50.810;8.342;2022-11-06T12:50:39;6.83;;;3.30;;
5805;SDS011;2929;50.810;8.342;2022-11-06T12:53:15;6.27;;;3.10;;
5805;SDS011;2929;50.810;8.342;2022-11-06T12:55:54;4.80;;;3.10;;
5805;SDS011;2929;50.810;8.342;2022-11-06T12:58:37;4.97;;;2.90;;
5805;SDS011;2929;50.810;8.342;2022-11-06T13:01:14;6.40;;;2.80;;
5805;SDS011;2929;50.810;8.342;2022-11-06T13:03:55;3.57;;;2.57;;
5805;SDS011;2929;50.810;8.342;2022-11-06T13:06:48;6.00;;;2.70;;
5805;SDS011;2929;50.810;8.342;2022-11-06T13:09:31;4.47;;;2.97;;
5805;SDS011;2929;50.810;8.342;2022-11-06T13:12:05;5.23;;;3.30;;
5805;SDS011;2929;50.810;8.342;2022-11-06T13:14:40;7.00;;;3.20;;
5805;SDS011;2929;50.810;8.342;2022-11-06T13:17:17;5.53;;;3.30;;
5805;SDS011;2929;50.810;8.342;2022-11-06T13:19:51;6.83;;;3.17;;
5805;SDS011;2929;50.810;8.342;2022-11-06T13:22:22;4.20;;;3.10;;
5805;SDS011;2929;50.810;8.342;2022-11-06T13:24:57;10.20;;;3.20;;
5805;SDS011;2929;50.810;8.342;2022-11-06T13:27:30;11.13;;;3.40;;
5805;SDS011;2929;50.810;8.342;2022-11-06T13:30:09;5.20;;;3.07;;
5805;SDS011;2929;50.810;8.342;2022-11-06T13:32:39;4.53;;;2.90;;
5805;SDS011;2929;50.810;8.342;2022-11-06T13:35:12;4.10;;;2.83;;
5805;SDS011;2929;50.810;8.342;2022-11-06T13:37:42;7.87;;;3.50;;
5805;SDS011;2929;50.810;8.342;2022-11-06T13:40:17;9.33;;;3.40;;
5805;SDS011;2929;50.810;8.342;2022-11-06T13:42:50;6.07;;;3.00;;
5805;SDS011;2929;50.810;8.342;2022-11-06T13:45:22;4.30;;;3.03;;
5805;SDS011;2929;50.810;8.342;2022-11-06T13:47:54;7.67;;;3.17;;
5805;SDS011;2929;50.810;8.342;2022-11-06T13:50:30;7.27;;;3.50;;
5805;SDS011;2929;50.810;8.342;2022-11-06T13:53:02;5.40;;;3.17;;
5805;SDS011;2929;50.810;8.342;2022-11-06T13:55:43;5.83;;;3.37;;
5805;SDS011;2929;50.810;8.342;2022-11-06T14:01:23;4.50;;;3.00;;
5805;SDS011;2929;50.810;8.342;2022-11-06T14:04:05;8.20;;;2.90;;
5805;SDS011;2929;50.810;8.342;2022-11-06T14:06:53;5.93;;;3.33;;
5805;SDS011;2929;50.810;8.342;2022-11-06T14:09:23;4.60;;;3.10;;
5805;SDS011;2929;50.810;8.342;2022-11-06T14:11:53;5.93;;;3.30;;
5805;SDS011;2929;50.810;8.342;2022-11-06T14:14:23;6.53;;;3.70;;
5805;SDS011;2929;50.810;8.342;2022-11-06T14:20:01;6.23;;;2.87;;
5805;SDS011;2929;50.810;8.342;2022-11-06T14:22:32;2.60;;;2.40;;
5805;SDS011;2929;50.810;8.342;2022-11-06T14:28:02;4.83;;;2.30;;
5805;SDS011;2929;50.810;8.342;2022-11-06T14:30:38;3.90;;;2.40;;
5805;SDS011;2929;50.810;8.342;2022-11-06T14:33:10;2.53;;;2.20;;
5805;SDS011;2929;50.810;8.342;2022-11-06T14:36:11;3.20;;;2.30;;
5805;SDS011;2929;50.810;8.342;2022-11-06T14:38:39;4.13;;;2.50;;
5805;SDS011;2929;50.810;8.342;2022-11-06T14:44:19;3.90;;;2.30;;
5805;SDS011;2929;50.810;8.342;2022-11-06T14:46:51;3.20;;;2.40;;
5805;SDS011;2929;50.810;8.342;2022-11-06T14:49:25;4.30;;;2.60;;
5805;SDS011;2929;50.810;8.342;2022-11-06T14:51:59;3.00;;;2.40;;
5805;SDS011;2929;50.810;8.342;2022-11-06T14:54:29;7.77;;;2.63;;
5805;SDS011;2929;50.810;8.342;2022-11-06T14:56:58;3.10;;;2.43;;
5805;SDS011;2929;50.810;8.342;2022-11-06T14:59:30;5.43;;;2.57;;
5805;SDS011;2929;50.810;8.342;2022-11-06T15:02:01;5.00;;;3.17;;
5805;SDS011;2929;50.810;8.342;2022-11-06T15:04:40;6.00;;;2.80;;
5805;SDS011;2929;50.810;8.342;2022-11-06T15:07:25;4.70;;;2.30;;
5805;SDS011;2929;50.810;8.342;2022-11-06T15:09:58;7.87;;;3.00;;
5805;SDS011;2929;50.810;8.342;2022-11-06T15:15:31;4.20;;;2.63;;
5805;SDS011;2929;50.810;8.342;2022-11-06T15:18:00;4.90;;;2.67;;
5805;SDS011;2929;50.810;8.342;2022-11-06T15:20:31;4.07;;;2.43;;
5805;SDS011;2929;50.810;8.342;2022-11-06T15:23:20;3.20;;;2.63;;
5805;SDS011;2929;50.810;8.342;2022-11-06T15:26:47;6.87;;;2.53;;
5805;SDS011;2929;50.810;8.342;2022-11-06T15:30:23;3.67;;;3.03;;
5805;SDS011;2929;50.810;8.342;2022-11-06T15:33:32;9.33;;;2.60;;
5805;SDS011;2929;50.810;8.342;2022-11-06T15:39:58;5.80;;;2.27;;
5805;SDS011;2929;50.810;8.342;2022-11-06T15:43:10;4.80;;;2.47;;
5805;SDS011;2929;50.810;8.342;2022-11-06T15:46:19;4.40;;;2.47;;
5805;SDS011;2929;50.810;8.342;2022-11-06T15:52:28;10.93;;;4.80;;
5805;SDS011;2929;50.810;8.342;2022-11-06T15:55:36;8.00;;;4.30;;
5805;SDS011;2929;50.810;8.342;2022-11-06T15:58:05;5.60;;;2.73;;
5805;SDS011;2929;50.810;8.342;2022-11-06T16:00:34;2.80;;;2.57;;
5805;SDS011;2929;50.810;8.342;2022-11-06T16:03:03;4.27;;;3.40;;
5805;SDS011;2929;50.810;8.342;2022-11-06T16:05:31;4.63;;;3.60;;